sensor_id;sensor_type;location;lat;lon;timestamp;temperature;humidity
2062;DHT22;11070;51.336;12.340;2023-01-26T00:00:49;0.50;99.90
2062;DHT22;11070;51.336;12.340;2023-01-26T00:03:15;0.60;99.90
2062;DHT22;11070;51.336;12.340;2023-01-26T00:05:41;0.60;99.90
2062;DHT22;11070;51.336;12.340;2023-01-26T00:08:07;0.70;99.90
2062;DHT22;11070;51.336;12.340;2023-01-26T00:10:38;0.70;99.90
2062;DHT22;11070;51.336;12.340;2023-01-26T00:13:05;0.70;99.90
2062;DHT22;11070;51.336;12.340;2023-01-26T00:15:32;0.70;99.90
2062;DHT22;11070;51.336;12.340;2023-01-26T00:17:58;0.70;99.90
2062;DHT22;11070;51.336;12.340;2023-01-26T00:20:24;0.70;99.90
2062;DHT22;11070;51.336;12.340;2023-01-26T00:22:50;0.70;99.90
2062;DHT22;11070;51.336;12.340;2023-01-26T00:25:16;0.80;99.90
2062;DHT22;11070;51.336;12.340;2023-01-26T00:27:41;0.80;99.90
2062;DHT22;11070;51.336;12.340;2023-01-26T00:30:07;0.80;99.90
2062;DHT22;11070;51.336;12.340;2023-01-26T00:32:37;0.80;99.90
2062;DHT22;11070;51.336;12.340;2023-01-26T00:35:03;0.80;99.90
2062;DHT22;11070;51.336;12.340;2023-01-26T00:37:29;0.90;99.90
2062;DHT22;11070;51.336;12.340;2023-01-26T00:39:55;0.80;99.90
2062;DHT22;11070;51.336;12.340;2023-01-26T00:42:20;0.80;99.90
2062;DHT22;11070;51.336;12.340;2023-01-26T00:44:48;0.80;99.90
2062;DHT22;11070;51.336;12.340;2023-01-26T00:47:14;0.80;99.90
2062;DHT22;11070;51.336;12.340;2023-01-26T00:49:40;0.80;99.90
2062;DHT22;11070;51.336;12.340;2023-01-26T00:52:06;0.80;99.90
2062;DHT22;11070;51.336;12.340;2023-01-26T00:54:32;0.80;99.90
2062;DHT22;11070;51.336;12.340;2023-01-26T00:56:58;0.80;99.90
2062;DHT22;11070;51.336;12.340;2023-01-26T00:59:24;0.80;99.90
2062;DHT22;11070;51.336;12.340;2023-01-26T01:01:51;0.90;99.90
2062;DHT22;11070;51.336;12.340;2023-01-26T01:04:17;0.90;99.90
2062;DHT22;11070;51.336;12.340;2023-01-26T01:06:43;0.90;99.90
2062;DHT22;11070;51.336;12.340;2023-01-26T01:09:08;0.80;99.90
2062;DHT22;11070;51.336;12.340;2023-01-26T01:11:34;0.80;99.90
2062;DHT22;11070;51.336;12.340;2023-01-26T01:14:00;0.80;99.90
2062;DHT22;11070;51.336;12.340;2023-01-26T01:16:26;0.80;99.90
2062;DHT22;11070;51.336;12.340;2023-01-26T01:18:53;0.70;99.90
2062;DHT22;11070;51.336;12.340;2023-01-26T01:21:19;0.70;99.90
2062;DHT22;11070;51.336;12.340;2023-01-26T01:23:45;0.80;99.90
2062;DHT22;11070;51.336;12.340;2023-01-26T01:26:12;0.80;99.90
2062;DHT22;11070;51.336;12.340;2023-01-26T01:28:39;0.80;99.90
2062;DHT22;11070;51.336;12.340;2023-01-26T01:31:06;0.80;99.90
2062;DHT22;11070;51.336;12.340;2023-01-26T01:33:32;0.80;99.90
2062;DHT22;11070;51.336;12.340;2023-01-26T01:35:58;0.70;99.90
2062;DHT22;11070;51.336;12.340;2023-01-26T01:38:25;0.60;99.90
2062;DHT22;11070;51.336;12.340;2023-01-26T01:40:51;0.60;99.90
2062;DHT22;11070;51.336;12.340;2023-01-26T01:43:17;0.60;99.90
2062;DHT22;11070;51.336;12.340;2023-01-26T01:45:47;0.50;99.90
2062;DHT22;11070;51.336;12.340;2023-01-26T01:48:37;0.50;99.90
2062;DHT22;11070;51.336;12.340;2023-01-26T01:51:14;0.50;99.90
2062;DHT22;11070;51.336;12.340;2023-01-26T01:53:43;0.50;99.90
2062;DHT22;11070;51.336;12.340;2023-01-26T01:56:17;0.50;99.90
2062;DHT22;11070;51.336;12.340;2023-01-26T01:58:48;0.50;99.90
2062;DHT22;11070;51.336;12.340;2023-01-26T02:01:16;0.50;99.90
2062;DHT22;11070;51.336;12.340;2023-01-26T02:03:44;0.40;99.90
2062;DHT22;11070;51.336;12.340;2023-01-26T02:06:14;0.30;99.90
2062;DHT22;11070;51.336;12.340;2023-01-26T02:08:50;0.30;99.90
2062;DHT22;11070;51.336;12.340;2023-01-26T02:11:42;0.30;99.90
2062;DHT22;11070;51.336;12.340;2023-01-26T02:14:14;0.20;99.90
2062;DHT22;11070;51.336;12.340;2023-01-26T02:16:40;0.30;99.90
2062;DHT22;11070;51.336;12.340;2023-01-26T02:19:13;0.40;99.90
2062;DHT22;11070;51.336;12.340;2023-01-26T02:21:41;0.40;99.90
2062;DHT22;11070;51.336;12.340;2023-01-26T02:24:28;0.40;99.90
2062;DHT22;11070;51.336;12.340;2023-01-26T02:26:55;0.40;99.90
2062;DHT22;11070;51.336;12.340;2023-01-26T02:29:21;0.40;99.90
2062;DHT22;11070;51.336;12.340;2023-01-26T02:31:47;0.40;99.90
2062;DHT22;11070;51.336;12.340;2023-01-26T02:34:14;0.50;99.90
2062;DHT22;11070;51.336;12.340;2023-01-26T02:36:40;0.50;99.90
2062;DHT22;11070;51.336;12.340;2023-01-26T02:41:38;0.50;99.90
2062;DHT22;11070;51.336;12.340;2023-01-26T02:44:23;0.50;99.90
2062;DHT22;11070;51.336;12.340;2023-01-26T02:46:49;0.40;99.90
2062;DHT22;11070;51.336;12.340;2023-01-26T02:49:15;0.50;99.90
2062;DHT22;11070;51.336;12.340;2023-01-26T02:51:59;0.50;99.90
2062;DHT22;11070;51.336;12.340;2023-01-26T02:54:25;0.50;99.90
2062;DHT22;11070;51.336;12.340;2023-01-26T02:57:09;0.50;99.90
2062;DHT22;11070;51.336;12.340;2023-01-26T02:59:35;0.50;99.90
2062;DHT22;11070;51.336;12.340;2023-01-26T03:02:01;0.40;99.90
2062;DHT22;11070;51.336;12.340;2023-01-26T03:04:26;0.40;99.90
2062;DHT22;11070;51.336;12.340;2023-01-26T03:06:52;0.40;99.90
2062;DHT22;11070;51.336;12.340;2023-01-26T03:09:17;0.50;99.90
2062;DHT22;11070;51.336;12.340;2023-01-26T03:11:43;0.50;99.90
2062;DHT22;11070;51.336;12.340;2023-01-26T03:14:13;0.50;99.90
2062;DHT22;11070;51.336;12.340;2023-01-26T03:16:39;0.50;99.90
2062;DHT22;11070;51.336;12.340;2023-01-26T03:19:06;0.50;99.90
2062;DHT22;11070;51.336;12.340;2023-01-26T03:21:51;0.50;99.90
2062;DHT22;11070;51.336;12.340;2023-01-26T03:24:35;0.60;99.90
2062;DHT22;11070;51.336;12.340;2023-01-26T03:27:19;0.60;99.90
2062;DHT22;11070;51.336;12.340;2023-01-26T03:29:51;0.60;99.90
2062;DHT22;11070;51.336;12.340;2023-01-26T03:32:17;0.60;99.90
2062;DHT22;11070;51.336;12.340;2023-01-26T03:34:42;0.60;99.90
2062;DHT22;11070;51.336;12.340;2023-01-26T03:37:08;0.50;99.90
2062;DHT22;11070;51.336;12.340;2023-01-26T03:39:34;0.40;99.90
2062;DHT22;11070;51.336;12.340;2023-01-26T03:42:18;0.50;99.90
2062;DHT22;11070;51.336;12.340;2023-01-26T03:45:03;0.40;99.90
2062;DHT22;11070;51.336;12.340;2023-01-26T03:47:48;0.40;99.90
2062;DHT22;11070;51.336;12.340;2023-01-26T03:50:32;0.30;99.90
2062;DHT22;11070;51.336;12.340;2023-01-26T03:53:18;0.30;99.90
2062;DHT22;11070;51.336;12.340;2023-01-26T03:56:04;0.40;99.90
2062;DHT22;11070;51.336;12.340;2023-01-26T03:59:00;0.40;99.90
2062;DHT22;11070;51.336;12.340;2023-01-26T04:01:39;0.40;99.90
2062;DHT22;11070;51.336;12.340;2023-01-26T04:04:06;0.40;99.90
2062;DHT22;11070;51.336;12.340;2023-01-26T04:06:51;0.30;99.90
2062;DHT22;11070;51.336;12.340;2023-01-26T04:09:36;0.30;99.90
2062;DHT22;11070;51.336;12.340;2023-01-26T04:12:03;0.30;99.90
2062;DHT22;11070;51.336;12.340;2023-01-26T04:14:28;0.20;99.90
2062;DHT22;11070;51.336;12.340;2023-01-26T04:17:13;0.30;99.90
2062;DHT22;11070;51.336;12.340;2023-01-26T04:19:57;0.30;99.90
2062;DHT22;11070;51.336;12.340;2023-01-26T04:22:41;0.20;99.90
2062;DHT22;11070;51.336;12.340;2023-01-26T04:25:14;0.20;99.90
2062;DHT22;11070;51.336;12.340;2023-01-26T04:27:42;0.10;99.90
2062;DHT22;11070;51.336;12.340;2023-01-26T04:30:09;0.10;99.90
2062;DHT22;11070;51.336;12.340;2023-01-26T04:32:36;0.00;99.90
2062;DHT22;11070;51.336;12.340;2023-01-26T04:35:02;0.00;99.90
2062;DHT22;11070;51.336;12.340;2023-01-26T04:37:28;0.00;99.90
2062;DHT22;11070;51.336;12.340;2023-01-26T04:39:54;0.10;99.90
2062;DHT22;11070;51.336;12.340;2023-01-26T04:42:19;0.10;99.90
2062;DHT22;11070;51.336;12.340;2023-01-26T04:44:45;0.10;99.90
2062;DHT22;11070;51.336;12.340;2023-01-26T04:47:10;0.20;99.90
2062;DHT22;11070;51.336;12.340;2023-01-26T04:49:36;0.20;99.90
2062;DHT22;11070;51.336;12.340;2023-01-26T04:52:02;0.20;99.90
2062;DHT22;11070;51.336;12.340;2023-01-26T04:54:27;0.30;99.90
2062;DHT22;11070;51.336;12.340;2023-01-26T04:56:53;0.20;99.90
2062;DHT22;11070;51.336;12.340;2023-01-26T04:59:19;0.20;99.90
2062;DHT22;11070;51.336;12.340;2023-01-26T05:01:44;0.10;99.90
2062;DHT22;11070;51.336;12.340;2023-01-26T05:04:10;0.10;99.90
2062;DHT22;11070;51.336;12.340;2023-01-26T05:06:37;0.20;99.90
2062;DHT22;11070;51.336;12.340;2023-01-26T05:09:04;0.20;99.90
2062;DHT22;11070;51.336;12.340;2023-01-26T05:11:30;0.30;99.90
2062;DHT22;11070;51.336;12.340;2023-01-26T05:13:56;0.30;99.90
2062;DHT22;11070;51.336;12.340;2023-01-26T05:16:21;0.30;99.90
2062;DHT22;11070;51.336;12.340;2023-01-26T05:18:47;0.30;99.90
2062;DHT22;11070;51.336;12.340;2023-01-26T05:21:13;0.30;99.90
2062;DHT22;11070;51.336;12.340;2023-01-26T05:23:38;0.20;99.90
2062;DHT22;11070;51.336;12.340;2023-01-26T05:26:05;0.20;99.90
2062;DHT22;11070;51.336;12.340;2023-01-26T05:28:32;0.30;99.90
2062;DHT22;11070;51.336;12.340;2023-01-26T05:30:57;0.20;99.90
2062;DHT22;11070;51.336;12.340;2023-01-26T05:33:23;0.20;99.90
2062;DHT22;11070;51.336;12.340;2023-01-26T05:35:49;0.30;99.90
2062;DHT22;11070;51.336;12.340;2023-01-26T05:38:15;0.20;99.90
2062;DHT22;11070;51.336;12.340;2023-01-26T05:40:41;0.20;99.90
2062;DHT22;11070;51.336;12.340;2023-01-26T05:43:07;0.20;99.90
2062;DHT22;11070;51.336;12.340;2023-01-26T05:45:33;0.20;99.90
2062;DHT22;11070;51.336;12.340;2023-01-26T05:47:59;0.20;99.90
2062;DHT22;11070;51.336;12.340;2023-01-26T05:50:25;0.10;99.90
2062;DHT22;11070;51.336;12.340;2023-01-26T05:52:51;0.10;99.90
2062;DHT22;11070;51.336;12.340;2023-01-26T05:55:17;0.10;99.90
2062;DHT22;11070;51.336;12.340;2023-01-26T05:57:43;0.10;99.90
2062;DHT22;11070;51.336;12.340;2023-01-26T06:00:10;0.10;99.90
2062;DHT22;11070;51.336;12.340;2023-01-26T06:02:35;0.20;99.90
2062;DHT22;11070;51.336;12.340;2023-01-26T06:05:01;0.10;99.90
2062;DHT22;11070;51.336;12.340;2023-01-26T06:07:27;0.10;99.90
2062;DHT22;11070;51.336;12.340;2023-01-26T06:09:52;0.10;99.90
2062;DHT22;11070;51.336;12.340;2023-01-26T06:12:19;0.00;99.90
2062;DHT22;11070;51.336;12.340;2023-01-26T06:14:46;0.10;99.90
2062;DHT22;11070;51.336;12.340;2023-01-26T06:17:13;0.10;99.90
2062;DHT22;11070;51.336;12.340;2023-01-26T06:19:39;0.10;99.90
2062;DHT22;11070;51.336;12.340;2023-01-26T06:22:09;0.10;99.90
2062;DHT22;11070;51.336;12.340;2023-01-26T06:24:35;0.10;99.90
2062;DHT22;11070;51.336;12.340;2023-01-26T06:27:01;0.10;99.90
2062;DHT22;11070;51.336;12.340;2023-01-26T06:29:27;0.20;99.90
2062;DHT22;11070;51.336;12.340;2023-01-26T06:31:55;0.20;99.90
2062;DHT22;11070;51.336;12.340;2023-01-26T06:34:21;0.20;99.90
2062;DHT22;11070;51.336;12.340;2023-01-26T06:36:47;0.10;99.90
2062;DHT22;11070;51.336;12.340;2023-01-26T06:39:12;0.10;99.90
2062;DHT22;11070;51.336;12.340;2023-01-26T06:41:39;0.10;99.90
2062;DHT22;11070;51.336;12.340;2023-01-26T06:44:07;0.10;99.90
2062;DHT22;11070;51.336;12.340;2023-01-26T06:46:33;0.10;99.90
2062;DHT22;11070;51.336;12.340;2023-01-26T06:49:01;0.10;99.90
2062;DHT22;11070;51.336;12.340;2023-01-26T06:54:09;0.30;99.90
2062;DHT22;11070;51.336;12.340;2023-01-26T06:56:35;0.30;99.90
2062;DHT22;11070;51.336;12.340;2023-01-26T06:59:00;0.30;99.90
2062;DHT22;11070;51.336;12.340;2023-01-26T07:01:26;0.30;99.90
2062;DHT22;11070;51.336;12.340;2023-01-26T07:03:53;0.30;99.90
2062;DHT22;11070;51.336;12.340;2023-01-26T07:06:20;0.30;99.90
2062;DHT22;11070;51.336;12.340;2023-01-26T07:08:45;0.30;99.90
2062;DHT22;11070;51.336;12.340;2023-01-26T07:11:12;0.30;99.90
2062;DHT22;11070;51.336;12.340;2023-01-26T07:13:38;0.30;99.90
2062;DHT22;11070;51.336;12.340;2023-01-26T07:16:10;0.30;99.90
2062;DHT22;11070;51.336;12.340;2023-01-26T07:18:36;0.30;99.90
2062;DHT22;11070;51.336;12.340;2023-01-26T07:21:03;0.30;99.90
2062;DHT22;11070;51.336;12.340;2023-01-26T07:23:29;0.30;99.90
2062;DHT22;11070;51.336;12.340;2023-01-26T07:25:55;0.30;99.90
2062;DHT22;11070;51.336;12.340;2023-01-26T07:28:21;0.30;99.90
2062;DHT22;11070;51.336;12.340;2023-01-26T07:30:47;0.20;99.90
2062;DHT22;11070;51.336;12.340;2023-01-26T07:33:13;0.30;99.90
2062;DHT22;11070;51.336;12.340;2023-01-26T07:35:39;0.30;99.90
2062;DHT22;11070;51.336;12.340;2023-01-26T07:38:05;0.20;99.90
2062;DHT22;11070;51.336;12.340;2023-01-26T07:40:31;0.10;99.90
2062;DHT22;11070;51.336;12.340;2023-01-26T07:42:57;0.10;99.90
2062;DHT22;11070;51.336;12.340;2023-01-26T07:45:24;0.00;99.90
2062;DHT22;11070;51.336;12.340;2023-01-26T07:47:49;0.00;99.90
2062;DHT22;11070;51.336;12.340;2023-01-26T07:50:15;0.00;99.90
2062;DHT22;11070;51.336;12.340;2023-01-26T07:52:41;0.10;99.90
2062;DHT22;11070;51.336;12.340;2023-01-26T07:55:08;0.20;99.90
2062;DHT22;11070;51.336;12.340;2023-01-26T07:57:33;0.20;99.90
2062;DHT22;11070;51.336;12.340;2023-01-26T07:59:59;0.10;99.90
2062;DHT22;11070;51.336;12.340;2023-01-26T08:02:25;0.10;99.90
2062;DHT22;11070;51.336;12.340;2023-01-26T08:04:50;0.20;99.90
2062;DHT22;11070;51.336;12.340;2023-01-26T08:07:16;0.20;99.90
2062;DHT22;11070;51.336;12.340;2023-01-26T08:09:42;0.20;99.90
2062;DHT22;11070;51.336;12.340;2023-01-26T08:12:07;0.10;99.90
2062;DHT22;11070;51.336;12.340;2023-01-26T08:14:33;0.10;99.90
2062;DHT22;11070;51.336;12.340;2023-01-26T08:17:00;0.00;99.90
2062;DHT22;11070;51.336;12.340;2023-01-26T08:19:26;0.10;99.90
2062;DHT22;11070;51.336;12.340;2023-01-26T08:21:51;0.20;99.90
2062;DHT22;11070;51.336;12.340;2023-01-26T08:24:18;0.20;99.90
2062;DHT22;11070;51.336;12.340;2023-01-26T08:26:44;0.20;99.90
2062;DHT22;11070;51.336;12.340;2023-01-26T08:29:10;0.20;99.90
2062;DHT22;11070;51.336;12.340;2023-01-26T08:31:36;0.20;99.90
2062;DHT22;11070;51.336;12.340;2023-01-26T08:34:02;0.30;99.90
2062;DHT22;11070;51.336;12.340;2023-01-26T08:36:28;0.30;99.90
2062;DHT22;11070;51.336;12.340;2023-01-26T08:38:54;0.30;99.90
2062;DHT22;11070;51.336;12.340;2023-01-26T08:41:20;0.20;99.90
2062;DHT22;11070;51.336;12.340;2023-01-26T08:43:46;0.30;99.90
2062;DHT22;11070;51.336;12.340;2023-01-26T08:46:12;0.20;99.90
2062;DHT22;11070;51.336;12.340;2023-01-26T08:48:37;0.20;99.90
2062;DHT22;11070;51.336;12.340;2023-01-26T08:51:05;0.30;99.90
2062;DHT22;11070;51.336;12.340;2023-01-26T08:53:32;0.20;99.90
2062;DHT22;11070;51.336;12.340;2023-01-26T08:56:03;0.20;99.90
2062;DHT22;11070;51.336;12.340;2023-01-26T08:58:29;0.20;99.90
2062;DHT22;11070;51.336;12.340;2023-01-26T09:00:55;0.30;99.90
2062;DHT22;11070;51.336;12.340;2023-01-26T09:03:21;0.30;99.90
2062;DHT22;11070;51.336;12.340;2023-01-26T09:05:47;0.30;99.90
2062;DHT22;11070;51.336;12.340;2023-01-26T09:08:12;0.30;99.90
2062;DHT22;11070;51.336;12.340;2023-01-26T09:10:38;0.30;99.90
2062;DHT22;11070;51.336;12.340;2023-01-26T09:13:04;0.30;99.90
2062;DHT22;11070;51.336;12.340;2023-01-26T09:15:30;0.30;99.90
2062;DHT22;11070;51.336;12.340;2023-01-26T09:17:56;0.20;99.90
2062;DHT22;11070;51.336;12.340;2023-01-26T09:20:21;0.20;99.90
2062;DHT22;11070;51.336;12.340;2023-01-26T09:22:47;0.20;99.90
2062;DHT22;11070;51.336;12.340;2023-01-26T09:25:13;0.20;99.90
2062;DHT22;11070;51.336;12.340;2023-01-26T09:27:39;0.30;99.90
2062;DHT22;11070;51.336;12.340;2023-01-26T09:30:06;0.40;99.90
2062;DHT22;11070;51.336;12.340;2023-01-26T09:32:32;0.40;99.90
2062;DHT22;11070;51.336;12.340;2023-01-26T09:34:58;0.40;99.90
2062;DHT22;11070;51.336;12.340;2023-01-26T09:37:24;0.40;99.90
2062;DHT22;11070;51.336;12.340;2023-01-26T09:39:50;0.40;99.90
2062;DHT22;11070;51.336;12.340;2023-01-26T09:55:47;0.40;99.90
2062;DHT22;11070;51.336;12.340;2023-01-26T09:58:32;0.40;99.90
2062;DHT22;11070;51.336;12.340;2023-01-26T10:01:00;0.30;99.90
2062;DHT22;11070;51.336;12.340;2023-01-26T10:03:45;0.30;99.90
2062;DHT22;11070;51.336;12.340;2023-01-26T10:08:45;0.40;99.90
2062;DHT22;11070;51.336;12.340;2023-01-26T10:13:50;0.50;99.90
2062;DHT22;11070;51.336;12.340;2023-01-26T10:16:18;0.40;99.90
2062;DHT22;11070;51.336;12.340;2023-01-26T10:19:19;0.50;99.90
2062;DHT22;11070;51.336;12.340;2023-01-26T10:21:48;0.50;99.90
2062;DHT22;11070;51.336;12.340;2023-01-26T10:24:20;0.40;99.90
2062;DHT22;11070;51.336;12.340;2023-01-26T10:26:47;0.40;99.90
2062;DHT22;11070;51.336;12.340;2023-01-26T10:29:14;0.40;99.90
2062;DHT22;11070;51.336;12.340;2023-01-26T10:31:43;0.50;99.90
2062;DHT22;11070;51.336;12.340;2023-01-26T10:34:14;0.40;99.90
2062;DHT22;11070;51.336;12.340;2023-01-26T10:36:42;0.40;99.90
2062;DHT22;11070;51.336;12.340;2023-01-26T10:39:10;0.30;99.90
2062;DHT22;11070;51.336;12.340;2023-01-26T10:41:36;0.20;99.90
2062;DHT22;11070;51.336;12.340;2023-01-26T10:46:41;0.20;99.90
2062;DHT22;11070;51.336;12.340;2023-01-26T10:51:34;0.10;99.90
2062;DHT22;11070;51.336;12.340;2023-01-26T10:59:36;0.00;99.90
2062;DHT22;11070;51.336;12.340;2023-01-26T11:04:39;0.30;99.90
2062;DHT22;11070;51.336;12.340;2023-01-26T11:07:25;0.30;99.90
2062;DHT22;11070;51.336;12.340;2023-01-26T11:09:51;0.40;99.90
2062;DHT22;11070;51.336;12.340;2023-01-26T11:12:19;0.50;99.90
2062;DHT22;11070;51.336;12.340;2023-01-26T11:15:02;0.60;99.90
2062;DHT22;11070;51.336;12.340;2023-01-26T11:34:44;0.40;99.90
2062;DHT22;11070;51.336;12.340;2023-01-26T11:42:48;0.40;99.90
2062;DHT22;11070;51.336;12.340;2023-01-26T11:45:31;0.40;99.90
2062;DHT22;11070;51.336;12.340;2023-01-26T11:48:24;0.30;99.90
2062;DHT22;11070;51.336;12.340;2023-01-26T11:59:25;0.10;99.90
2062;DHT22;11070;51.336;12.340;2023-01-26T12:04:21;0.20;99.90
2062;DHT22;11070;51.336;12.340;2023-01-26T12:09:43;0.30;99.90
2062;DHT22;11070;51.336;12.340;2023-01-26T12:12:23;0.30;99.90
2062;DHT22;11070;51.336;12.340;2023-01-26T12:15:19;0.30;99.90
2062;DHT22;11070;51.336;12.340;2023-01-26T12:18:00;0.30;99.90
2062;DHT22;11070;51.336;12.340;2023-01-26T12:20:43;0.40;99.90
2062;DHT22;11070;51.336;12.340;2023-01-26T12:26:11;0.40;99.90
2062;DHT22;11070;51.336;12.340;2023-01-26T12:31:33;0.50;99.90
2062;DHT22;11070;51.336;12.340;2023-01-26T12:34:00;0.40;99.90
2062;DHT22;11070;51.336;12.340;2023-01-26T12:36:40;0.40;99.90
2062;DHT22;11070;51.336;12.340;2023-01-26T12:44:45;0.40;99.90
2062;DHT22;11070;51.336;12.340;2023-01-26T12:47:23;0.40;99.90
2062;DHT22;11070;51.336;12.340;2023-01-26T12:50:03;0.40;99.90
2062;DHT22;11070;51.336;12.340;2023-01-26T12:52:45;0.50;99.90
2062;DHT22;11070;51.336;12.340;2023-01-26T12:55:19;0.40;99.90
2062;DHT22;11070;51.336;12.340;2023-01-26T12:58:38;0.30;99.90
2062;DHT22;11070;51.336;12.340;2023-01-26T13:01:11;0.40;99.90
2062;DHT22;11070;51.336;12.340;2023-01-26T13:03:43;0.20;99.90
2062;DHT22;11070;51.336;12.340;2023-01-26T13:11:05;0.00;99.90
2062;DHT22;11070;51.336;12.340;2023-01-26T13:13:54;0.00;99.90
2062;DHT22;11070;51.336;12.340;2023-01-26T13:18:56;-0.10;99.90
2062;DHT22;11070;51.336;12.340;2023-01-26T13:21:43;-0.20;99.90
2062;DHT22;11070;51.336;12.340;2023-01-26T13:26:55;-0.10;99.90
2062;DHT22;11070;51.336;12.340;2023-01-26T13:31:51;-0.20;99.90
2062;DHT22;11070;51.336;12.340;2023-01-26T13:34:41;-0.20;99.90
2062;DHT22;11070;51.336;12.340;2023-01-26T13:37:13;-0.20;99.90
2062;DHT22;11070;51.336;12.340;2023-01-26T13:39:43;-0.20;99.90
2062;DHT22;11070;51.336;12.340;2023-01-26T13:42:17;-0.20;99.90
2062;DHT22;11070;51.336;12.340;2023-01-26T13:44:50;-0.10;99.90
2062;DHT22;11070;51.336;12.340;2023-01-26T13:47:21;-0.10;99.90
2062;DHT22;11070;51.336;12.340;2023-01-26T13:49:49;-0.20;99.90
2062;DHT22;11070;51.336;12.340;2023-01-26T13:52:16;-0.20;99.90
2062;DHT22;11070;51.336;12.340;2023-01-26T13:54:43;-0.20;99.90
2062;DHT22;11070;51.336;12.340;2023-01-26T13:57:20;-0.10;99.90
2062;DHT22;11070;51.336;12.340;2023-01-26T13:59:54;-0.10;99.90
2062;DHT22;11070;51.336;12.340;2023-01-26T14:02:26;-0.20;99.90
2062;DHT22;11070;51.336;12.340;2023-01-26T14:04:57;-0.20;99.90
2062;DHT22;11070;51.336;12.340;2023-01-26T14:07:39;-0.30;99.90
2062;DHT22;11070;51.336;12.340;2023-01-26T14:10:06;-0.20;99.90
2062;DHT22;11070;51.336;12.340;2023-01-26T14:12:42;-0.20;99.90
2062;DHT22;11070;51.336;12.340;2023-01-26T14:15:27;-0.20;99.90
2062;DHT22;11070;51.336;12.340;2023-01-26T14:18:02;-0.30;99.90
2062;DHT22;11070;51.336;12.340;2023-01-26T14:20:35;-0.30;99.90
2062;DHT22;11070;51.336;12.340;2023-01-26T14:23:17;-0.20;99.90
2062;DHT22;11070;51.336;12.340;2023-01-26T14:26:06;-0.30;99.90
2062;DHT22;11070;51.336;12.340;2023-01-26T14:28:41;-0.40;99.90
2062;DHT22;11070;51.336;12.340;2023-01-26T14:31:19;-0.40;99.90
2062;DHT22;11070;51.336;12.340;2023-01-26T14:33:53;-0.30;99.90
2062;DHT22;11070;51.336;12.340;2023-01-26T14:36:23;-0.30;99.90
2062;DHT22;11070;51.336;12.340;2023-01-26T14:38:51;-0.30;99.90
2062;DHT22;11070;51.336;12.340;2023-01-26T14:41:21;-0.30;99.90
2062;DHT22;11070;51.336;12.340;2023-01-26T14:43:55;-0.30;99.90
2062;DHT22;11070;51.336;12.340;2023-01-26T14:47:15;-0.20;99.90
2062;DHT22;11070;51.336;12.340;2023-01-26T14:49:17;-0.30;99.90
2062;DHT22;11070;51.336;12.340;2023-01-26T14:51:45;-0.40;99.90
2062;DHT22;11070;51.336;12.340;2023-01-26T14:54:25;-0.30;99.90
2062;DHT22;11070;51.336;12.340;2023-01-26T14:56:53;-0.30;99.90
2062;DHT22;11070;51.336;12.340;2023-01-26T14:59:28;-0.20;99.90
2062;DHT22;11070;51.336;12.340;2023-01-26T15:02:22;-0.30;99.90
2062;DHT22;11070;51.336;12.340;2023-01-26T15:04:59;-0.40;99.90
2062;DHT22;11070;51.336;12.340;2023-01-26T15:07:50;-0.30;99.90
2062;DHT22;11070;51.336;12.340;2023-01-26T15:13:07;-0.50;99.90
2062;DHT22;11070;51.336;12.340;2023-01-26T15:16:09;-0.50;99.90
2062;DHT22;11070;51.336;12.340;2023-01-26T15:18:36;-0.50;99.90
2062;DHT22;11070;51.336;12.340;2023-01-26T15:23:33;-0.40;99.90
2062;DHT22;11070;51.336;12.340;2023-01-26T15:28:50;-0.30;99.90
2062;DHT22;11070;51.336;12.340;2023-01-26T15:31:27;-0.30;99.90
2062;DHT22;11070;51.336;12.340;2023-01-26T15:33:54;-0.30;99.90
2062;DHT22;11070;51.336;12.340;2023-01-26T15:36:25;-0.30;99.90
2062;DHT22;11070;51.336;12.340;2023-01-26T15:39:12;-0.40;99.90
2062;DHT22;11070;51.336;12.340;2023-01-26T15:41:39;-0.40;99.90
2062;DHT22;11070;51.336;12.340;2023-01-26T15:44:12;-0.40;99.90
2062;DHT22;11070;51.336;12.340;2023-01-26T15:46:38;-0.30;99.90
2062;DHT22;11070;51.336;12.340;2023-01-26T15:49:04;-0.30;99.90
2062;DHT22;11070;51.336;12.340;2023-01-26T15:51:30;-0.30;99.90
2062;DHT22;11070;51.336;12.340;2023-01-26T15:53:55;-0.40;99.90
2062;DHT22;11070;51.336;12.340;2023-01-26T15:56:21;-0.30;99.90
2062;DHT22;11070;51.336;12.340;2023-01-26T15:58:47;-0.30;99.90
2062;DHT22;11070;51.336;12.340;2023-01-26T16:01:19;-0.20;99.90
2062;DHT22;11070;51.336;12.340;2023-01-26T16:03:45;-0.20;99.90
2062;DHT22;11070;51.336;12.340;2023-01-26T16:06:31;-0.30;99.90
2062;DHT22;11070;51.336;12.340;2023-01-26T16:08:57;-0.30;99.90
2062;DHT22;11070;51.336;12.340;2023-01-26T16:11:35;-0.20;99.90
2062;DHT22;11070;51.336;12.340;2023-01-26T16:14:01;-0.20;99.90
2062;DHT22;11070;51.336;12.340;2023-01-26T16:16:27;-0.30;99.90
2062;DHT22;11070;51.336;12.340;2023-01-26T16:18:54;-0.30;99.90
2062;DHT22;11070;51.336;12.340;2023-01-26T16:21:23;-0.30;99.90
2062;DHT22;11070;51.336;12.340;2023-01-26T16:23:50;-0.40;99.90
2062;DHT22;11070;51.336;12.340;2023-01-26T16:26:17;-0.40;99.90
2062;DHT22;11070;51.336;12.340;2023-01-26T16:28:44;-0.40;99.90
2062;DHT22;11070;51.336;12.340;2023-01-26T16:31:30;-0.40;99.90
2062;DHT22;11070;51.336;12.340;2023-01-26T16:33:57;-0.40;99.90
2062;DHT22;11070;51.336;12.340;2023-01-26T16:36:23;-0.40;99.90
2062;DHT22;11070;51.336;12.340;2023-01-26T16:38:48;-0.40;99.90
2062;DHT22;11070;51.336;12.340;2023-01-26T16:41:24;-0.30;99.90
2062;DHT22;11070;51.336;12.340;2023-01-26T16:43:53;-0.40;99.90
2062;DHT22;11070;51.336;12.340;2023-01-26T16:46:18;-0.40;99.90
2062;DHT22;11070;51.336;12.340;2023-01-26T16:48:44;-0.30;99.90
2062;DHT22;11070;51.336;12.340;2023-01-26T16:51:19;-0.30;99.90
2062;DHT22;11070;51.336;12.340;2023-01-26T16:53:46;-0.20;99.90
2062;DHT22;11070;51.336;12.340;2023-01-26T16:56:13;-0.20;99.90
2062;DHT22;11070;51.336;12.340;2023-01-26T16:58:39;-0.30;99.90
2062;DHT22;11070;51.336;12.340;2023-01-26T17:01:08;-0.30;99.90
2062;DHT22;11070;51.336;12.340;2023-01-26T17:03:34;-0.20;99.90
2062;DHT22;11070;51.336;12.340;2023-01-26T17:06:00;-0.20;99.90
2062;DHT22;11070;51.336;12.340;2023-01-26T17:08:25;-0.20;99.90
2062;DHT22;11070;51.336;12.340;2023-01-26T17:10:51;-0.10;99.90
2062;DHT22;11070;51.336;12.340;2023-01-26T17:13:17;0.00;99.90
2062;DHT22;11070;51.336;12.340;2023-01-26T17:15:42;-0.10;99.90
2062;DHT22;11070;51.336;12.340;2023-01-26T17:18:11;-0.10;99.90
2062;DHT22;11070;51.336;12.340;2023-01-26T17:20:37;-0.10;99.90
2062;DHT22;11070;51.336;12.340;2023-01-26T17:23:04;0.00;99.90
2062;DHT22;11070;51.336;12.340;2023-01-26T17:25:33;-0.10;99.90
2062;DHT22;11070;51.336;12.340;2023-01-26T17:27:58;-0.10;99.90
2062;DHT22;11070;51.336;12.340;2023-01-26T17:30:24;-0.10;99.90
2062;DHT22;11070;51.336;12.340;2023-01-26T17:32:49;0.00;99.90
2062;DHT22;11070;51.336;12.340;2023-01-26T17:35:15;-0.10;99.90
2062;DHT22;11070;51.336;12.340;2023-01-26T17:37:41;-0.20;99.90
2062;DHT22;11070;51.336;12.340;2023-01-26T17:40:08;-0.20;99.90
2062;DHT22;11070;51.336;12.340;2023-01-26T17:42:33;-0.20;99.90
2062;DHT22;11070;51.336;12.340;2023-01-26T17:45:01;-0.20;99.90